Time;durP1;ratioP1;P1;durP2;ratioP2;P2;SDS_P1;SDS_P2;PMS_P1;PMS_P2;Temp;Humidity;BMP_temperature;BMP_pressure;BME280_temperature;BME280_humidity;BME280_pressure;Samples;Min_cycle;Max_cycle;Signal;HPM_P1;HPM_P2
2023/07/29 00:00:45;;;;;;;10.43;6.40;;;19.60;77.50;;;;;;5050427;28;20585;-77
2023/07/29 00:03:12;;;;;;;10.57;6.77;;;19.60;77.50;;;;;;5083304;28;20053;-77
2023/07/29 00:05:39;;;;;;;10.00;6.43;;;19.60;77.50;;;;;;5031685;28;20276;-77
2023/07/29 00:08:07;;;;;;;11.25;7.45;;;19.50;77.50;;;;;;5049297;28;20192;-77
2023/07/29 00:10:37;;;;;;;11.27;7.13;;;19.50;77.50;;;;;;5050855;28;20503;-77
2023/07/29 00:13:05;;;;;;;10.35;6.70;;;19.50;77.60;;;;;;5048795;28;20045;-77
2023/07/29 00:15:31;;;;;;;11.80;6.93;;;19.50;77.70;;;;;;5049249;28;20053;-77
2023/07/29 00:17:58;;;;;;;9.65;6.45;;;19.50;77.70;;;;;;5049369;28;20749;-77
2023/07/29 00:20:25;;;;;;;11.23;7.10;;;19.50;77.80;;;;;;5032200;28;20464;-77
2023/07/29 00:22:54;;;;;;;11.38;7.15;;;19.40;77.90;;;;;;5048615;28;20053;-77
2023/07/29 00:25:22;;;;;;;10.75;6.80;;;19.40;78.00;;;;;;5048054;28;20045;-77
2023/07/29 00:27:49;;;;;;;12.23;7.03;;;19.40;78.00;;;;;;5046395;28;20064;-77
2023/07/29 00:30:16;;;;;;;12.68;7.43;;;19.30;78.00;;;;;;5032216;28;20285;-77
2023/07/29 00:32:43;;;;;;;12.23;7.30;;;19.30;78.10;;;;;;5048641;28;20644;-77
2023/07/29 00:35:11;;;;;;;11.50;6.70;;;19.30;78.30;;;;;;5050560;28;20152;-77
2023/07/29 00:37:38;;;;;;;11.77;7.18;;;19.30;78.30;;;;;;5032487;28;20049;-77
2023/07/29 00:40:13;;;;;;;11.10;7.10;;;19.30;78.50;;;;;;5047342;28;20853;-77
2023/07/29 00:42:42;;;;;;;11.20;7.00;;;19.20;78.70;;;;;;5032072;28;20659;-77
2023/07/29 00:45:10;;;;;;;10.57;6.70;;;19.20;78.70;;;;;;5065705;28;20514;-77
2023/07/29 00:47:37;;;;;;;11.65;6.82;;;19.20;78.80;;;;;;5048552;28;20493;-77
2023/07/29 00:50:06;;;;;;;12.60;6.85;;;19.10;78.90;;;;;;5048850;28;20061;-77
2023/07/29 00:52:33;;;;;;;11.97;6.90;;;19.10;79.10;;;;;;5031785;28;20046;-77
2023/07/29 00:55:00;;;;;;;11.77;6.63;;;19.10;79.10;;;;;;5031343;28;20280;-77
2023/07/29 00:57:28;;;;;;;10.70;6.60;;;19.10;79.30;;;;;;5031010;28;20045;-77
2023/07/29 00:59:57;;;;;;;11.75;6.90;;;19.00;79.40;;;;;;5048027;28;20521;-77
2023/07/29 01:02:24;;;;;;;10.48;5.82;;;19.00;79.50;;;;;;5049402;28;20140;-77
2023/07/29 01:04:53;;;;;;;10.73;6.07;;;19.00;79.40;;;;;;5048588;28;20516;-77
2023/07/29 01:07:27;;;;;;;10.77;6.35;;;19.00;79.50;;;;;;5049631;28;20276;-77
2023/07/29 01:10:02;;;;;;;9.88;6.22;;;18.90;79.60;;;;;;5048274;28;20049;-77
2023/07/29 01:12:38;;;;;;;10.05;6.45;;;18.90;79.60;;;;;;5031998;28;20518;-77
2023/07/29 01:15:15;;;;;;;10.00;5.93;;;18.90;79.60;;;;;;5030704;28;20219;-77
2023/07/29 01:17:47;;;;;;;8.97;5.90;;;18.80;79.70;;;;;;5031444;28;20152;-77
2023/07/29 01:20:17;;;;;;;10.45;6.10;;;18.80;79.70;;;;;;5031398;28;20357;-77
2023/07/29 01:22:44;;;;;;;10.45;6.18;;;18.80;79.90;;;;;;5047268;28;20484;-77
2023/07/29 01:25:13;;;;;;;9.50;5.95;;;18.80;79.80;;;;;;5051747;28;20050;-77
2023/07/29 01:27:40;;;;;;;10.25;6.15;;;18.70;80.00;;;;;;5061811;28;20080;-77
2023/07/29 01:30:08;;;;;;;10.87;5.93;;;18.80;80.00;;;;;;5038915;28;20057;-77
2023/07/29 01:32:40;;;;;;;9.38;6.10;;;18.70;80.10;;;;;;5030110;28;20255;-77
2023/07/29 01:35:20;;;;;;;9.93;5.82;;;18.70;80.10;;;;;;5031223;28;20598;-77
2023/07/29 01:37:51;;;;;;;10.10;5.97;;;18.70;80.20;;;;;;5049146;28;20054;-77
2023/07/29 01:40:21;;;;;;;11.10;6.22;;;18.60;80.10;;;;;;5047551;28;20140;-77
2023/07/29 01:42:48;;;;;;;9.70;5.93;;;18.60;80.20;;;;;;5047799;28;20143;-77
2023/07/29 01:45:15;;;;;;;9.75;5.85;;;18.60;80.20;;;;;;5031110;28;20344;-77
2023/07/29 01:47:43;;;;;;;12.02;6.72;;;18.60;80.30;;;;;;5031230;28;20042;-77
2023/07/29 01:50:11;;;;;;;9.82;6.25;;;18.60;80.40;;;;;;5028663;28;20077;-77
2023/07/29 01:52:38;;;;;;;10.30;5.95;;;18.50;80.50;;;;;;5030208;28;20569;-77
2023/07/29 01:55:05;;;;;;;9.93;6.13;;;18.50;80.50;;;;;;5064371;28;20124;-77
2023/07/29 01:57:34;;;;;;;10.48;5.53;;;18.50;80.50;;;;;;5064088;28;20257;-77
2023/07/29 02:00:01;;;;;;;10.07;5.85;;;18.40;80.70;;;;;;5047199;28;20141;-77
2023/07/29 02:02:28;;;;;;;10.40;5.55;;;18.40;80.70;;;;;;5047386;28;20053;-77
2023/07/29 02:04:55;;;;;;;8.77;5.22;;;18.40;80.90;;;;;;5031172;28;20565;-77
2023/07/29 02:07:23;;;;;;;7.83;5.13;;;18.30;81.00;;;;;;5030047;28;20534;-77
2023/07/29 02:09:49;;;;;;;8.25;5.07;;;18.30;81.10;;;;;;5030731;28;20285;-77
2023/07/29 02:12:16;;;;;;;8.27;4.85;;;18.30;81.20;;;;;;5047233;28;20049;-77
2023/07/29 02:14:45;;;;;;;8.38;5.05;;;18.30;81.20;;;;;;5049299;28;20049;-77
2023/07/29 02:17:11;;;;;;;8.93;5.72;;;18.30;81.30;;;;;;5046929;28;20061;-77
2023/07/29 02:19:38;;;;;;;8.83;4.93;;;18.30;81.30;;;;;;5047499;28;20092;-77
2023/07/29 02:22:05;;;;;;;8.40;4.80;;;18.30;81.40;;;;;;5047364;28;20708;-77
2023/07/29 02:24:32;;;;;;;9.02;5.22;;;18.20;81.30;;;;;;5045997;28;20133;-77
2023/07/29 02:26:59;;;;;;;9.35;4.80;;;18.20;81.40;;;;;;5030418;28;20554;-77
2023/07/29 02:29:26;;;;;;;8.73;5.07;;;18.20;81.40;;;;;;5047075;28;20049;-77
2023/07/29 02:31:54;;;;;;;9.43;5.20;;;18.20;81.50;;;;;;5030332;28;20057;-77
2023/07/29 02:34:21;;;;;;;9.43;5.38;;;18.20;81.60;;;;;;5030503;28;20249;-77
2023/07/29 02:36:48;;;;;;;8.30;4.85;;;18.20;81.50;;;;;;5063762;28;20046;-77
2023/07/29 02:39:15;;;;;;;9.43;4.93;;;18.20;81.50;;;;;;5046640;28;20046;-77
2023/07/29 02:41:42;;;;;;;7.93;4.60;;;18.20;81.50;;;;;;5029034;28;20049;-77
2023/07/29 02:44:09;;;;;;;9.70;4.47;;;18.10;81.50;;;;;;5047175;28;20061;-77
2023/07/29 02:46:36;;;;;;;8.35;4.70;;;18.10;81.60;;;;;;5029630;28;20261;-77
2023/07/29 02:49:04;;;;;;;8.00;4.60;;;18.10;81.60;;;;;;5030283;28;20123;-76
2023/07/29 02:51:32;;;;;;;8.80;4.43;;;18.10;81.60;;;;;;5029567;28;20049;-77
2023/07/29 02:53:58;;;;;;;7.13;4.00;;;18.10;81.60;;;;;;5046947;28;20718;-77
2023/07/29 02:56:25;;;;;;;8.13;4.33;;;18.10;81.60;;;;;;5029939;28;20054;-77
2023/07/29 02:58:52;;;;;;;7.20;4.10;;;18.10;81.60;;;;;;5046166;28;20276;-77
2023/07/29 03:01:19;;;;;;;8.20;4.30;;;18.10;81.70;;;;;;5063094;28;20053;-77
2023/07/29 03:03:46;;;;;;;7.55;4.20;;;18.10;81.80;;;;;;5029721;28;20055;-77
2023/07/29 03:06:16;;;;;;;8.40;4.40;;;18.10;81.80;;;;;;5045996;28;20585;-77
2023/07/29 03:08:43;;;;;;;9.10;5.00;;;18.10;81.80;;;;;;5029778;28;20042;-77
2023/07/29 03:11:11;;;;;;;8.27;4.65;;;18.00;81.90;;;;;;5046103;28;20299;-77
2023/07/29 03:13:38;;;;;;;8.80;4.80;;;18.00;81.90;;;;;;5047174;28;20056;-77
2023/07/29 03:16:06;;;;;;;8.93;4.90;;;18.00;82.00;;;;;;5028708;28;20136;-77
2023/07/29 03:18:33;;;;;;;7.13;4.03;;;18.00;82.00;;;;;;5063158;28;20528;-76
2023/07/29 03:21:00;;;;;;;7.90;4.50;;;18.00;81.90;;;;;;5029419;28;20046;-77
2023/07/29 03:23:30;;;;;;;8.15;4.50;;;18.00;81.90;;;;;;5029699;28;20289;-77
2023/07/29 03:25:58;;;;;;;8.93;4.60;;;18.00;81.90;;;;;;5046201;28;20052;-77
2023/07/29 03:28:27;;;;;;;7.95;4.80;;;18.00;81.90;;;;;;5029829;28;20056;-77
2023/07/29 03:30:54;;;;;;;7.55;4.20;;;18.00;81.90;;;;;;5046138;28;20089;-77
2023/07/29 03:33:21;;;;;;;7.83;4.40;;;18.00;81.90;;;;;;5045484;28;20056;-77
2023/07/29 03:35:48;;;;;;;8.35;4.43;;;17.90;81.90;;;;;;5046400;28;20824;-77
2023/07/29 03:38:16;;;;;;;7.28;3.97;;;17.90;81.80;;;;;;5047586;28;20049;-76
2023/07/29 03:40:44;;;;;;;8.73;4.32;;;17.90;81.80;;;;;;5029385;28;20674;-77
2023/07/29 03:43:11;;;;;;;7.95;4.32;;;17.80;81.80;;;;;;5045854;28;20072;-77
2023/07/29 03:45:39;;;;;;;7.03;4.00;;;17.80;81.80;;;;;;5046083;28;20044;-77
2023/07/29 03:48:06;;;;;;;6.72;4.35;;;17.80;81.70;;;;;;5046122;28;20366;-77
2023/07/29 03:50:34;;;;;;;7.28;4.10;;;17.80;81.80;;;;;;5028645;28;20056;-77
2023/07/29 03:53:02;;;;;;;8.27;4.07;;;17.80;81.70;;;;;;5029033;28;20050;-77
2023/07/29 03:55:29;;;;;;;6.22;3.55;;;17.80;81.70;;;;;;5046033;28;20132;-77
2023/07/29 03:57:58;;;;;;;7.27;3.73;;;17.80;81.70;;;;;;5048981;28;20065;-77
2023/07/29 04:00:25;;;;;;;8.25;4.00;;;17.80;81.70;;;;;;5048762;28;20746;-77
2023/07/29 04:02:52;;;;;;;7.45;3.60;;;17.80;81.70;;;;;;5032450;28;20045;-77
2023/07/29 04:05:19;;;;;;;7.07;3.60;;;17.70;81.60;;;;;;5049381;28;20049;-77
2023/07/29 04:07:47;;;;;;;7.10;3.78;;;17.70;81.60;;;;;;5049724;28;20063;-77
2023/07/29 04:10:14;;;;;;;6.47;2.90;;;17.70;81.60;;;;;;5031708;28;20100;-76
2023/07/29 04:12:41;;;;;;;7.43;3.58;;;17.60;81.60;;;;;;5033003;28;20369;-77
2023/07/29 04:15:10;;;;;;;7.20;3.65;;;17.60;81.50;;;;;;5032584;28;20057;-77
2023/07/29 04:17:37;;;;;;;7.07;3.60;;;17.60;81.50;;;;;;5032251;28;20661;-77
2023/07/29 04:20:06;;;;;;;7.22;3.20;;;17.60;81.50;;;;;;5032653;28;20053;-77
2023/07/29 04:22:35;;;;;;;7.20;3.60;;;17.50;81.60;;;;;;5032398;28;20069;-77
2023/07/29 04:25:02;;;;;;;6.00;3.03;;;17.50;81.60;;;;;;5032440;28;20336;-77
2023/07/29 04:27:29;;;;;;;7.20;3.13;;;17.60;81.60;;;;;;5027804;28;20660;-77
2023/07/29 04:29:55;;;;;;;6.43;2.85;;;17.50;81.60;;;;;;5048812;28;20053;-77
2023/07/29 04:35:15;;;;;;;5.53;2.90;;;17.50;81.60;;;;;;5043745;28;20050;-77
2023/07/29 04:37:42;;;;;;;8.07;2.80;;;17.50;81.60;;;;;;5047993;28;20268;-76
2023/07/29 04:40:10;;;;;;;5.55;2.85;;;17.50;81.60;;;;;;5030955;28;20618;-77
2023/07/29 04:42:38;;;;;;;6.05;2.90;;;17.50;81.70;;;;;;5063666;28;20053;-77
2023/07/29 04:45:06;;;;;;;5.82;2.83;;;17.50;81.60;;;;;;5029305;28;20056;-76
2023/07/29 04:47:35;;;;;;;5.63;2.90;;;17.50;81.70;;;;;;5047784;28;20516;-76
2023/07/29 04:50:02;;;;;;;6.78;3.00;;;17.50;81.70;;;;;;5031726;28;20416;-78
2023/07/29 04:52:28;;;;;;;6.32;2.90;;;17.50;81.80;;;;;;5044220;28;20050;-78
2023/07/29 04:54:55;;;;;;;5.90;2.58;;;17.50;81.80;;;;;;5048481;28;20049;-80
2023/07/29 04:57:22;;;;;;;5.53;2.90;;;17.50;81.90;;;;;;5063139;28;20196;-79
2023/07/29 04:59:49;;;;;;;4.70;2.60;;;17.50;81.90;;;;;;5029945;28;20061;-78
2023/07/29 05:02:16;;;;;;;5.13;2.63;;;17.50;81.80;;;;;;5045675;28;20686;-78
2023/07/29 05:04:44;;;;;;;5.63;2.72;;;17.50;81.80;;;;;;5031304;28;20132;-79
2023/07/29 05:07:11;;;;;;;5.95;2.70;;;17.50;81.90;;;;;;5046929;28;20045;-78
2023/07/29 05:09:39;;;;;;;7.03;2.70;;;17.50;81.90;;;;;;5047585;28;20057;-78
2023/07/29 05:12:07;;;;;;;5.57;2.70;;;17.40;81.90;;;;;;5046024;28;21026;-78
2023/07/29 05:14:34;;;;;;;4.93;2.47;;;17.40;81.90;;;;;;5047720;28;20304;-79
2023/07/29 05:17:01;;;;;;;6.32;2.55;;;17.40;82.00;;;;;;5030776;28;20943;-78
2023/07/29 05:19:28;;;;;;;5.25;2.20;;;17.40;81.90;;;;;;5075908;28;20484;-77
2023/07/29 05:21:57;;;;;;;6.05;2.30;;;17.40;82.00;;;;;;5062884;28;20128;-78
2023/07/29 05:24:24;;;;;;;5.73;2.27;;;17.40;82.10;;;;;;5028887;28;20478;-79
2023/07/29 05:26:51;;;;;;;5.50;2.60;;;17.40;82.10;;;;;;5042665;28;20288;-79
2023/07/29 05:29:18;;;;;;;4.75;2.50;;;17.40;82.30;;;;;;5062816;28;20463;-77
2023/07/29 05:31:45;;;;;;;5.93;2.65;;;17.40;82.40;;;;;;5044971;28;20128;-77
2023/07/29 05:34:16;;;;;;;4.85;2.25;;;17.40;82.50;;;;;;5045134;28;20053;-78
2023/07/29 05:36:43;;;;;;;5.97;2.43;;;17.40;82.50;;;;;;5044470;28;20144;-76
2023/07/29 05:39:12;;;;;;;6.15;2.97;;;17.40;82.60;;;;;;5029844;28;20360;-79
2023/07/29 05:41:38;;;;;;;6.63;2.80;;;17.40;82.80;;;;;;5020400;28;20061;-78
2023/07/29 05:44:06;;;;;;;6.90;2.80;;;17.40;82.80;;;;;;5028656;28;20038;-77
2023/07/29 05:46:32;;;;;;;6.88;2.78;;;17.40;83.00;;;;;;5046441;28;20053;-80
2023/07/29 05:48:59;;;;;;;6.17;3.13;;;17.40;83.10;;;;;;5039301;28;20073;-81
2023/07/29 05:51:26;;;;;;;6.65;2.80;;;17.40;83.30;;;;;;5039195;28;20352;-77
2023/07/29 05:53:53;;;;;;;8.07;3.22;;;17.40;83.30;;;;;;5056814;28;20666;-78
2023/07/29 05:56:22;;;;;;;8.43;3.00;;;17.40;83.50;;;;;;5038165;28;20052;-79
2023/07/29 05:58:49;;;;;;;7.18;3.28;;;17.50;83.50;;;;;;5047153;28;20668;-78
2023/07/29 06:01:21;;;;;;;7.93;3.60;;;17.40;83.70;;;;;;5053350;28;20144;-78
2023/07/29 06:03:48;;;;;;;7.55;3.28;;;17.50;83.90;;;;;;5062503;28;20721;-78
2023/07/29 06:06:15;;;;;;;8.15;3.67;;;17.50;83.90;;;;;;5057939;28;20045;-78
2023/07/29 06:08:42;;;;;;;8.07;3.13;;;17.50;84.10;;;;;;5047345;28;20073;-77
2023/07/29 06:11:09;;;;;;;8.20;3.10;;;17.50;84.20;;;;;;5027283;28;20045;-77
2023/07/29 06:13:37;;;;;;;7.20;3.43;;;17.50;84.20;;;;;;5045415;28;20104;-77
2023/07/29 06:16:04;;;;;;;9.13;3.67;;;17.50;84.30;;;;;;5064468;28;20973;-78
2023/07/29 06:18:31;;;;;;;8.90;3.60;;;17.50;84.40;;;;;;5027795;28;20518;-77
2023/07/29 06:20:58;;;;;;;9.60;3.47;;;17.50;84.50;;;;;;5035236;28;20056;-79
2023/07/29 06:23:25;;;;;;;7.85;3.45;;;17.50;84.50;;;;;;5027002;28;20124;-77
2023/07/29 06:25:51;;;;;;;8.83;3.70;;;17.50;84.60;;;;;;5041860;28;20427;-78
2023/07/29 06:28:18;;;;;;;7.88;3.78;;;17.50;84.90;;;;;;5036154;28;20261;-78
2023/07/29 06:30:46;;;;;;;9.45;4.15;;;17.50;85.00;;;;;;5027461;28;20060;-78
2023/07/29 06:33:13;;;;;;;8.18;3.40;;;17.60;85.20;;;;;;5042859;28;20074;-78
2023/07/29 06:35:40;;;;;;;9.97;3.73;;;17.60;85.00;;;;;;5048316;28;20456;-78
2023/07/29 06:38:07;;;;;;;9.27;3.53;;;17.60;85.20;;;;;;5042418;28;21065;-77
2023/07/29 06:40:34;;;;;;;9.45;3.38;;;17.60;85.20;;;;;;5055527;28;20668;-77
2023/07/29 06:43:00;;;;;;;7.90;3.67;;;17.60;85.40;;;;;;5051325;28;20081;-76
2023/07/29 06:45:27;;;;;;;8.73;3.53;;;17.70;85.30;;;;;;5048155;28;20245;-77
2023/07/29 06:47:56;;;;;;;6.73;2.73;;;17.80;85.30;;;;;;5074744;28;20041;-76
2023/07/29 06:50:23;;;;;;;8.80;3.30;;;17.80;85.30;;;;;;5046708;28;21334;-76
2023/07/29 06:52:50;;;;;;;9.25;3.53;;;17.80;85.40;;;;;;5041698;28;20077;-76
2023/07/29 06:55:17;;;;;;;8.68;3.88;;;17.80;85.70;;;;;;5050973;28;20044;-76
2023/07/29 06:57:43;;;;;;;9.00;4.32;;;17.80;85.90;;;;;;5039275;28;20529;-76
2023/07/29 07:00:11;;;;;;;7.87;3.70;;;17.80;85.70;;;;;;5045600;28;20061;-77
2023/07/29 07:02:38;;;;;;;10.10;4.32;;;17.80;85.60;;;;;;5046166;28;20284;-75
2023/07/29 07:05:07;;;;;;;11.98;4.30;;;17.90;85.50;;;;;;5046062;28;20057;-76
2023/07/29 07:07:34;;;;;;;9.32;3.83;;;18.00;85.70;;;;;;5047251;28;20050;-75
2023/07/29 07:10:01;;;;;;;9.77;3.75;;;18.00;85.40;;;;;;5076843;28;20550;-77
2023/07/29 07:12:28;;;;;;;9.70;3.60;;;18.00;85.50;;;;;;5052210;28;20052;-76
2023/07/29 07:14:55;;;;;;;11.27;4.38;;;18.00;85.20;;;;;;5041324;28;20265;-76
2023/07/29 07:17:21;;;;;;;8.75;4.20;;;18.10;85.40;;;;;;5038012;28;20056;-76
2023/07/29 07:19:49;;;;;;;8.40;4.25;;;18.10;85.20;;;;;;5047368;28;20153;-76
2023/07/29 07:22:17;;;;;;;10.02;4.53;;;18.10;85.20;;;;;;5049471;28;20970;-76
2023/07/29 07:24:44;;;;;;;9.43;4.97;;;18.10;85.20;;;;;;5052989;28;20109;-76
2023/07/29 07:27:11;;;;;;;9.13;5.20;;;18.20;85.00;;;;;;5047148;28;20278;-76
2023/07/29 07:29:38;;;;;;;8.60;4.63;;;18.20;85.10;;;;;;5042106;28;20054;-76
2023/07/29 07:32:06;;;;;;;10.10;5.70;;;18.20;85.00;;;;;;5054718;28;20147;-75
2023/07/29 07:34:33;;;;;;;10.75;5.60;;;18.30;85.10;;;;;;5045948;28;20283;-76
2023/07/29 07:37:00;;;;;;;11.33;4.70;;;18.30;85.00;;;;;;5047932;28;20132;-76
2023/07/29 07:39:28;;;;;;;10.70;4.60;;;18.30;84.60;;;;;;5054237;28;20308;-76
2023/07/29 07:41:55;;;;;;;8.90;4.50;;;18.30;84.20;;;;;;5049173;28;20052;-76
2023/07/29 07:44:22;;;;;;;7.32;4.55;;;18.40;84.40;;;;;;5050912;28;20535;-76
2023/07/29 07:46:49;;;;;;;9.25;4.85;;;18.40;84.30;;;;;;5060371;28;20054;-77
2023/07/29 07:49:18;;;;;;;8.57;4.20;;;18.40;84.40;;;;;;5047759;28;20052;-77
2023/07/29 07:51:45;;;;;;;8.38;4.30;;;18.50;83.70;;;;;;5081374;28;20241;-77
2023/07/29 07:54:12;;;;;;;7.80;3.70;;;18.50;83.40;;;;;;5056553;28;20191;-77
2023/07/29 07:56:41;;;;;;;8.13;3.92;;;18.50;83.30;;;;;;5050785;28;20064;-78
2023/07/29 07:59:08;;;;;;;7.75;4.00;;;18.50;83.10;;;;;;5047360;28;20467;-78
2023/07/29 08:01:36;;;;;;;10.50;4.30;;;18.50;83.20;;;;;;5047446;28;20554;-80
2023/07/29 08:04:04;;;;;;;8.63;3.72;;;18.60;83.20;;;;;;5056535;28;20280;-79
2023/07/29 08:06:31;;;;;;;7.88;3.70;;;18.60;82.80;;;;;;5050642;28;20052;-78
2023/07/29 08:08:58;;;;;;;7.95;3.58;;;18.60;83.10;;;;;;5049391;28;20579;-79
2023/07/29 08:11:26;;;;;;;10.75;3.55;;;18.70;83.10;;;;;;5046912;28;20142;-79
2023/07/29 08:13:54;;;;;;;8.60;3.93;;;18.70;82.80;;;;;;5048300;28;20072;-78
2023/07/29 08:16:21;;;;;;;8.65;4.13;;;18.80;82.20;;;;;;5032170;28;20328;-77
2023/07/29 08:18:48;;;;;;;7.47;4.07;;;18.80;81.40;;;;;;5044672;28;20064;-77
2023/07/29 08:21:15;;;;;;;6.68;4.05;;;18.80;81.50;;;;;;5047218;28;20046;-79
2023/07/29 08:23:42;;;;;;;7.15;3.85;;;18.80;81.30;;;;;;5049055;28;20049;-79
2023/07/29 08:26:09;;;;;;;7.03;4.00;;;18.80;81.10;;;;;;5042522;28;20049;-78
2023/07/29 08:28:37;;;;;;;8.15;3.30;;;18.80;81.60;;;;;;5045826;28;20336;-78
2023/07/29 08:31:06;;;;;;;6.97;3.38;;;18.90;81.80;;;;;;5044394;28;20053;-77
2023/07/29 08:33:34;;;;;;;6.53;3.75;;;19.00;81.40;;;;;;5049306;28;20056;-77
2023/07/29 08:36:02;;;;;;;8.85;3.50;;;19.00;81.50;;;;;;5047422;28;20056;-77
2023/07/29 08:38:29;;;;;;;6.27;3.20;;;19.10;80.90;;;;;;5046930;28;20754;-77
2023/07/29 08:41:05;;;;;;;6.82;2.95;;;19.10;80.20;;;;;;5050491;28;20786;-77
2023/07/29 08:43:33;;;;;;;7.38;3.30;;;19.20;79.90;;;;;;5047232;28;20504;-77
2023/07/29 08:46:01;;;;;;;5.38;2.90;;;19.20;79.80;;;;;;5046248;28;20054;-77
2023/07/29 08:48:37;;;;;;;6.85;2.88;;;19.30;79.10;;;;;;5049037;28;20058;-77
2023/07/29 08:51:06;;;;;;;4.70;2.97;;;19.30;78.90;;;;;;5047914;28;20053;-77
2023/07/29 08:53:33;;;;;;;7.38;3.38;;;19.30;78.70;;;;;;5049675;28;20298;-77
2023/07/29 08:56:00;;;;;;;6.97;2.92;;;19.30;78.50;;;;;;5049233;28;20058;-77
2023/07/29 08:58:28;;;;;;;5.72;3.00;;;19.40;77.60;;;;;;5045277;28;20050;-77
2023/07/29 09:00:55;;;;;;;5.30;2.80;;;19.40;78.10;;;;;;5069855;22;20060;-77
2023/07/29 09:03:22;;;;;;;6.27;2.00;;;19.40;78.20;;;;;;5028384;28;20132;-77
2023/07/29 09:05:51;;;;;;;5.50;2.47;;;19.50;78.00;;;;;;5010980;28;20270;-77
2023/07/29 09:08:21;;;;;;;6.32;2.30;;;19.50;78.20;;;;;;5030266;28;20125;-77
2023/07/29 09:10:48;;;;;;;5.63;2.40;;;19.50;78.30;;;;;;5028363;28;20689;-77
2023/07/29 09:13:15;;;;;;;5.25;2.38;;;19.70;77.80;;;;;;5028275;28;20048;-77
2023/07/29 09:15:42;;;;;;;5.37;2.27;;;19.70;77.50;;;;;;5029539;28;20050;-77
2023/07/29 09:18:11;;;;;;;5.85;2.15;;;19.70;77.10;;;;;;5025122;28;20277;-77
2023/07/29 09:20:38;;;;;;;6.18;2.50;;;19.80;77.10;;;;;;5028379;28;20108;-76
2023/07/29 09:23:10;;;;;;;6.50;2.50;;;19.90;76.90;;;;;;5028363;28;20062;-77
2023/07/29 09:25:37;;;;;;;6.95;2.00;;;19.90;76.90;;;;;;5011414;28;20049;-77
2023/07/29 09:28:09;;;;;;;5.07;1.53;;;20.00;75.90;;;;;;5029296;28;20053;-76
2023/07/29 09:30:36;;;;;;;5.28;2.10;;;20.00;76.00;;;;;;5059801;28;20308;-76
2023/07/29 09:33:03;;;;;;;4.80;1.90;;;20.00;76.60;;;;;;5028367;28;20062;-76
2023/07/29 09:35:34;;;;;;;5.30;2.00;;;20.00;76.50;;;;;;5059751;28;20042;-76
2023/07/29 09:38:01;;;;;;;7.50;2.10;;;20.00;75.90;;;;;;5036348;28;20065;-76
2023/07/29 09:40:36;;;;;;;5.43;1.70;;;20.00;76.20;;;;;;5033026;28;20042;-76
2023/07/29 09:43:05;;;;;;;6.38;2.22;;;20.00;76.20;;;;;;5048658;28;20295;-77
2023/07/29 09:45:34;;;;;;;6.40;2.35;;;20.00;76.80;;;;;;5055921;28;20089;-75
2023/07/29 09:48:02;;;;;;;6.18;2.10;;;20.10;76.60;;;;;;5038058;28;20137;-76
2023/07/29 09:50:30;;;;;;;5.93;1.88;;;20.30;76.30;;;;;;5026464;28;20054;-76
2023/07/29 09:52:58;;;;;;;5.63;1.90;;;20.30;76.00;;;;;;5009470;28;20578;-76
2023/07/29 09:55:26;;;;;;;4.10;1.63;;;20.30;76.20;;;;;;5056292;28;20305;-76
2023/07/29 09:58:02;;;;;;;4.97;1.80;;;20.40;76.90;;;;;;5026003;28;20642;-77
2023/07/29 10:00:29;;;;;;;4.88;1.60;;;20.50;76.80;;;;;;5021849;28;20057;-76
2023/07/29 10:02:57;;;;;;;5.35;1.40;;;20.50;76.90;;;;;;5026468;28;20092;-76
2023/07/29 10:05:27;;;;;;;5.73;2.07;;;20.50;75.70;;;;;;5024410;28;20058;-77
2023/07/29 10:07:55;;;;;;;4.63;2.05;;;20.60;75.50;;;;;;5023998;28;20266;-75
2023/07/29 10:10:22;;;;;;;5.07;1.77;;;20.60;75.50;;;;;;5025290;28;20133;-75
2023/07/29 10:12:50;;;;;;;6.07;2.10;;;20.70;75.20;;;;;;5027887;28;20171;-74
2023/07/29 10:15:18;;;;;;;5.53;2.10;;;20.70;75.00;;;;;;5027280;28;20049;-76
2023/07/29 10:17:47;;;;;;;6.00;2.00;;;20.70;75.20;;;;;;5058534;28;20060;-75
2023/07/29 10:20:14;;;;;;;5.90;2.20;;;20.80;75.20;;;;;;5023671;28;20266;-75
2023/07/29 10:22:42;;;;;;;5.55;2.33;;;20.80;74.70;;;;;;5026148;28;20112;-76
2023/07/29 10:25:13;;;;;;;5.78;2.42;;;20.90;74.30;;;;;;5024246;28;20550;-76
2023/07/29 10:27:44;;;;;;;4.95;2.70;;;21.00;74.30;;;;;;5022974;28;20145;-75
2023/07/29 10:30:14;;;;;;;6.07;2.60;;;21.00;74.30;;;;;;5020744;28;20085;-75
2023/07/29 10:32:45;;;;;;;7.10;2.55;;;21.00;74.40;;;;;;5019051;28;20823;-74
2023/07/29 10:35:13;;;;;;;5.50;2.78;;;21.10;74.10;;;;;;5018996;28;20093;-73
2023/07/29 10:37:41;;;;;;;5.45;2.20;;;21.10;74.10;;;;;;5048416;28;20497;-74
2023/07/29 10:40:10;;;;;;;5.38;2.63;;;21.10;73.80;;;;;;5036990;28;20540;-74
2023/07/29 10:42:37;;;;;;;6.63;2.93;;;21.10;73.70;;;;;;5022088;28;20132;-74
2023/07/29 10:45:20;;;;;;;5.57;3.10;;;21.10;73.40;;;;;;5026887;28;20269;-73
2023/07/29 10:47:49;;;;;;;4.88;2.38;;;21.10;73.60;;;;;;5027538;28;20510;-73
2023/07/29 10:50:20;;;;;;;5.97;2.95;;;21.10;73.80;;;;;;5026465;28;20120;-73
2023/07/29 10:52:51;;;;;;;5.40;3.13;;;21.10;73.90;;;;;;5008274;28;20088;-74
2023/07/29 10:55:27;;;;;;;5.50;2.80;;;21.10;73.80;;;;;;5026272;28;20478;-74
2023/07/29 10:58:04;;;;;;;6.13;2.75;;;21.10;73.60;;;;;;5028119;28;20338;-75
2023/07/29 11:00:32;;;;;;;4.65;2.15;;;21.00;74.20;;;;;;5027700;28;20046;-75
2023/07/29 11:03:03;;;;;;;4.70;2.13;;;20.80;74.50;;;;;;5023685;28;20090;-74
2023/07/29 11:05:44;;;;;;;6.05;2.03;;;20.70;74.90;;;;;;5058706;28;20050;-77
2023/07/29 11:08:23;;;;;;;4.97;2.37;;;20.50;75.50;;;;;;5050551;28;20050;-76
2023/07/29 11:11:01;;;;;;;5.05;2.55;;;20.50;75.50;;;;;;5026835;28;20280;-77
2023/07/29 11:13:30;;;;;;;6.03;2.70;;;20.30;76.40;;;;;;5021275;28;20808;-76
2023/07/29 11:15:58;;;;;;;6.88;3.50;;;20.20;76.90;;;;;;5024165;28;20164;-76
2023/07/29 11:18:30;;;;;;;5.90;2.90;;;20.10;77.40;;;;;;5031492;28;20064;-76
2023/07/29 11:20:58;;;;;;;5.40;3.10;;;20.00;78.60;;;;;;5030698;28;20057;-76
2023/07/29 11:23:30;;;;;;;4.90;2.65;;;20.00;79.00;;;;;;5029425;28;20278;-77
2023/07/29 11:25:58;;;;;;;6.57;2.75;;;19.90;79.50;;;;;;5026991;28;20136;-77
2023/07/29 11:28:25;;;;;;;5.13;2.70;;;19.90;79.90;;;;;;5012798;28;20141;-77
2023/07/29 11:30:52;;;;;;;4.65;2.38;;;19.90;80.00;;;;;;5030420;28;20056;-78
2023/07/29 11:33:21;;;;;;;5.47;2.10;;;19.90;80.10;;;;;;5030036;28;20052;-78
2023/07/29 11:35:50;;;;;;;5.65;1.90;;;19.90;80.30;;;;;;5039210;28;20726;-78
2023/07/29 11:38:18;;;;;;;4.05;1.65;;;19.90;79.50;;;;;;5028509;28;20129;-74
2023/07/29 11:40:55;;;;;;;6.80;1.92;;;20.00;78.80;;;;;;5025570;28;20090;-76
2023/07/29 11:43:22;;;;;;;7.00;2.13;;;20.00;78.60;;;;;;5019677;28;20141;-76
2023/07/29 11:45:50;;;;;;;5.17;2.13;;;20.00;78.30;;;;;;5040580;28;20555;-76
2023/07/29 11:48:17;;;;;;;5.38;1.60;;;20.00;78.20;;;;;;5030077;28;20276;-76
2023/07/29 11:50:46;;;;;;;5.22;2.20;;;20.10;78.00;;;;;;5028477;28;20366;-77
2023/07/29 11:53:16;;;;;;;5.15;2.00;;;20.10;77.60;;;;;;5023790;28;20117;-76
2023/07/29 11:55:43;;;;;;;9.18;2.20;;;20.10;77.80;;;;;;5026756;28;20113;-77
2023/07/29 11:58:11;;;;;;;6.17;1.77;;;20.20;76.80;;;;;;5027849;28;20080;-77
2023/07/29 12:00:39;;;;;;;5.43;2.10;;;20.30;77.00;;;;;;5025798;28;20304;-77
2023/07/29 12:03:08;;;;;;;5.35;1.70;;;20.30;76.50;;;;;;5017277;28;20050;-76
2023/07/29 12:05:35;;;;;;;3.63;1.20;;;20.50;75.60;;;;;;5025276;28;20054;-77
2023/07/29 12:08:03;;;;;;;4.05;1.25;;;20.50;74.60;;;;;;5026517;28;20629;-77
2023/07/29 12:10:32;;;;;;;3.93;1.60;;;20.50;73.70;;;;;;5026582;28;20076;-76
2023/07/29 12:12:59;;;;;;;5.47;1.80;;;20.60;72.70;;;;;;5023210;28;20289;-76
2023/07/29 12:15:27;;;;;;;4.00;1.60;;;20.60;72.10;;;;;;5057769;28;20502;-75
2023/07/29 12:17:57;;;;;;;4.50;1.85;;;20.70;72.50;;;;;;5060217;28;20133;-76
2023/07/29 12:20:24;;;;;;;5.45;1.65;;;20.70;71.80;;;;;;5028917;28;20121;-77
2023/07/29 12:22:54;;;;;;;4.03;1.73;;;20.70;72.20;;;;;;5033076;28;20054;-77
2023/07/29 12:25:21;;;;;;;4.20;1.60;;;20.70;72.60;;;;;;5048430;28;20261;-77
2023/07/29 12:27:51;;;;;;;4.65;2.03;;;20.80;73.20;;;;;;5026865;28;20042;-77
2023/07/29 12:30:21;;;;;;;4.30;1.55;;;20.90;73.00;;;;;;5030622;28;20073;-76
2023/07/29 12:32:49;;;;;;;5.47;1.60;;;21.00;72.50;;;;;;5026633;28;20520;-76
2023/07/29 12:35:16;;;;;;;4.43;1.37;;;21.00;70.10;;;;;;5034909;28;20195;-77
2023/07/29 12:37:58;;;;;;;4.45;1.25;;;21.00;69.40;;;;;;5030349;28;20736;-76
2023/07/29 12:40:27;;;;;;;3.60;1.23;;;21.00;69.20;;;;;;5050952;28;20156;-77
2023/07/29 12:42:56;;;;;;;5.63;1.73;;;21.10;69.80;;;;;;5063157;28;20050;-77
2023/07/29 12:45:26;;;;;;;4.10;1.55;;;21.10;71.20;;;;;;5006303;28;20057;-76
2023/07/29 12:47:53;;;;;;;5.27;2.20;;;21.10;69.90;;;;;;5022740;28;20243;-76
2023/07/29 12:50:21;;;;;;;5.85;1.73;;;21.30;69.40;;;;;;5028650;28;20316;-76
2023/07/29 12:52:49;;;;;;;5.18;1.52;;;21.30;69.30;;;;;;5040959;28;20186;-76